createdAt,value
2018-07-22T00:00:52.424Z,25.67
2018-07-22T00:05:55.565Z,25.10
2018-07-22T00:10:58.688Z,25.17
2018-07-22T00:16:01.855Z,25.43
2018-07-22T00:21:04.933Z,25.97
2018-07-22T00:26:08.054Z,25.57
2018-07-22T00:31:11.149Z,26.77
2018-07-22T00:36:14.232Z,28.13
2018-07-22T00:41:17.381Z,28.47
2018-07-22T00:46:20.538Z,27.50
2018-07-22T00:51:32.730Z,30.13
2018-07-22T00:56:36.194Z,28.90
2018-07-22T01:01:41.723Z,28.63
2018-07-22T01:06:45.057Z,29.37
2018-07-22T01:11:49.453Z,27.87
2018-07-22T01:16:52.865Z,30.03
2018-07-22T01:21:56.870Z,29.13
2018-07-22T01:27:02.706Z,29.43
2018-07-22T01:32:05.823Z,29.63
2018-07-22T01:37:08.900Z,29.37
2018-07-22T01:42:12.020Z,31.33
2018-07-22T01:47:15.127Z,29.17
2018-07-22T01:52:18.224Z,30.97
2018-07-22T01:57:21.282Z,30.33
2018-07-22T02:02:25.417Z,29.87
2018-07-22T02:07:28.665Z,30.73
2018-07-22T02:12:33.597Z,30.03
2018-07-22T02:17:36.641Z,28.90
2018-07-22T02:22:39.736Z,29.00
2018-07-22T02:27:42.848Z,27.67
2018-07-22T02:32:45.970Z,28.73
2018-07-22T02:37:50.149Z,29.93
2018-07-22T02:42:57.181Z,27.77
2018-07-22T02:48:00.316Z,26.87
2018-07-22T02:53:07.594Z,28.07
2018-07-22T02:58:10.708Z,29.33
2018-07-22T03:03:13.756Z,28.37
2018-07-22T03:08:17.905Z,29.33
2018-07-22T03:13:21.897Z,30.40
2018-07-22T03:18:25.537Z,30.20
2018-07-22T03:23:28.944Z,29.73
2018-07-22T03:28:32.045Z,31.00
2018-07-22T03:33:35.124Z,28.43
2018-07-22T03:38:39.205Z,28.30
2018-07-22T03:43:44.426Z,28.10
2018-07-22T03:48:47.477Z,29.17
2018-07-22T03:53:50.680Z,28.63
2018-07-22T03:58:53.741Z,29.57
2018-07-22T04:03:56.996Z,29.87
2018-07-22T04:09:00.124Z,30.07
2018-07-22T04:14:03.184Z,27.37
2018-07-22T04:19:06.240Z,28.67
2018-07-22T04:24:09.333Z,27.40
2018-07-22T04:29:12.557Z,26.97
2018-07-22T04:34:15.701Z,32.67
2018-07-22T04:39:18.971Z,32.97
2018-07-22T04:44:24.201Z,28.67
2018-07-22T04:49:27.269Z,33.40
2018-07-22T04:54:30.484Z,36.77
2018-07-22T04:59:42.411Z,36.97
2018-07-22T05:04:47.925Z,40.20
2018-07-22T05:09:51.600Z,43.70
2018-07-22T05:14:54.812Z,43.10
2018-07-22T05:19:57.969Z,44.60
2018-07-22T05:25:01.126Z,45.93
2018-07-22T05:30:04.229Z,49.77
2018-07-22T05:35:07.316Z,48.23
2018-07-22T05:40:11.611Z,47.83
2018-07-22T05:45:14.925Z,49.23
2018-07-22T05:50:18.017Z,50.27
2018-07-22T05:55:21.236Z,45.30
2018-07-22T06:00:25.881Z,42.63
2018-07-22T06:05:28.957Z,39.30
2018-07-22T06:10:32.076Z,42.67
2018-07-22T06:15:36.564Z,39.57
2018-07-22T06:20:41.601Z,38.67
2018-07-22T06:25:44.665Z,37.63
2018-07-22T06:30:49.345Z,37.03
2018-07-22T06:35:52.590Z,38.07
2018-07-22T06:40:55.617Z,44.70
2018-07-22T06:45:58.685Z,36.53
2018-07-22T06:51:02.182Z,35.60
2018-07-22T06:56:05.296Z,37.03
2018-07-22T07:01:09.504Z,39.90
2018-07-22T07:06:12.609Z,33.63
2018-07-22T07:11:18.141Z,34.30
2018-07-22T07:16:21.269Z,33.43
2018-07-22T07:21:24.368Z,35.40
2018-07-22T07:26:27.449Z,33.23
2018-07-22T07:31:30.488Z,34.03
2018-07-22T07:36:34.163Z,33.47
2018-07-22T07:41:37.629Z,31.67
2018-07-22T07:46:40.716Z,31.00
2018-07-22T07:51:43.990Z,36.67
2018-07-22T07:56:47.122Z,33.43
2018-07-22T08:01:50.328Z,31.50
2018-07-22T08:06:53.509Z,30.47
2018-07-22T08:11:56.552Z,30.20
2018-07-22T08:16:59.668Z,26.47
2018-07-22T08:22:02.855Z,29.03
2018-07-22T08:27:05.909Z,31.07
2018-07-22T08:32:10.016Z,32.13
2018-07-22T08:37:14.674Z,30.00
2018-07-22T08:42:21.649Z,27.63
2018-07-22T08:47:29.665Z,29.73
2018-07-22T09:03:35.555Z,30.37
2018-07-22T09:08:38.881Z,32.13
2018-07-22T09:13:42.793Z,29.17
2018-07-22T09:18:46.066Z,29.77
2018-07-22T09:23:50.113Z,30.20
2018-07-22T09:28:54.294Z,27.43
2018-07-22T09:34:12.010Z,30.33
2018-07-22T09:39:27.445Z,26.30
2018-07-22T09:44:32.402Z,30.63
2018-07-22T09:49:37.599Z,30.07
2018-07-22T09:54:43.665Z,27.83
2018-07-22T09:59:49.701Z,27.50
2018-07-22T10:04:53.092Z,24.93
2018-07-22T10:09:57.170Z,24.27
2018-07-22T10:15:04.688Z,24.57
2018-07-22T10:20:14.877Z,27.07
2018-07-22T10:25:18.164Z,24.40
2018-07-22T10:30:24.595Z,22.90
2018-07-22T10:35:29.387Z,24.60
2018-07-22T10:40:34.500Z,23.23
2018-07-22T10:45:40.758Z,21.30
2018-07-22T10:50:48.669Z,25.07
2018-07-22T10:55:53.084Z,19.37
2018-07-22T11:00:56.836Z,20.83
2018-07-22T11:06:03.202Z,18.70
2018-07-22T11:11:11.015Z,19.27
2018-07-22T11:16:14.625Z,19.07
2018-07-22T11:21:23.940Z,18.40
2018-07-22T11:26:27.895Z,16.17
2018-07-22T11:31:31.249Z,17.77
2018-07-22T11:36:34.432Z,19.23
2018-07-22T11:41:45.439Z,15.93
2018-07-22T11:46:49.342Z,13.27
2018-07-22T11:51:52.688Z,13.00
2018-07-22T11:56:57.365Z,11.80
2018-07-22T12:02:00.720Z,11.40
2018-07-22T12:07:14.595Z,11.70
2018-07-22T12:12:24.252Z,14.33
2018-07-22T12:17:31.535Z,11.60
2018-07-22T12:22:40.816Z,12.17
2018-07-22T12:27:44.531Z,11.77
2018-07-22T12:32:51.477Z,9.20
2018-07-22T12:38:19.262Z,12.63
2018-07-22T12:43:28.031Z,10.87
2018-07-22T12:53:53.093Z,9.50
2018-07-22T12:58:57.418Z,8.37
2018-07-22T13:04:28.619Z,7.73
2018-07-22T13:09:40.633Z,10.37
2018-07-22T13:14:45.474Z,7.53
2018-07-22T13:19:52.539Z,8.43
2018-07-22T13:24:59.789Z,7.40
2018-07-22T13:30:04.090Z,7.57
2018-07-22T13:35:12.550Z,7.57
2018-07-22T13:40:16.767Z,9.77
2018-07-22T13:45:23.748Z,7.40
2018-07-22T13:50:30.001Z,7.03
2018-07-22T13:55:44.529Z,7.17
2018-07-22T14:00:49.997Z,6.90
2018-07-22T14:11:03.398Z,7.03
2018-07-22T14:16:08.321Z,7.50
2018-07-22T14:21:13.621Z,9.77
2018-07-22T14:26:17.318Z,6.73
2018-07-22T14:31:37.442Z,7.00
2018-07-22T14:36:40.649Z,7.77
2018-07-22T14:41:44.408Z,8.30
2018-07-22T14:46:52.446Z,6.97
2018-07-22T14:51:55.721Z,7.47
2018-07-22T14:56:59.059Z,6.83
2018-07-22T15:02:05.145Z,6.10
2018-07-22T15:07:13.250Z,5.93
2018-07-22T15:12:16.417Z,6.00
2018-07-22T15:17:23.212Z,9.80
2018-07-22T15:22:29.647Z,15.17
2018-07-22T15:27:35.923Z,8.77
2018-07-22T15:32:39.116Z,6.00
2018-07-22T15:37:45.964Z,6.23
2018-07-22T15:42:52.204Z,6.13
2018-07-22T15:48:00.902Z,6.43
2018-07-22T19:19:37.080Z,6.00
2018-07-22T19:24:40.256Z,7.10
2018-07-22T19:29:43.308Z,9.60
2018-07-22T19:34:46.374Z,5.93
2018-07-22T19:39:49.477Z,6.57
2018-07-22T19:44:52.568Z,6.47
2018-07-22T19:49:55.898Z,9.00
2018-07-22T19:54:58.948Z,9.80
2018-07-22T20:00:02.009Z,5.93
2018-07-22T20:05:05.302Z,7.97
2018-07-22T20:10:08.441Z,7.17
2018-07-22T20:15:11.492Z,7.27
2018-07-22T20:20:15.072Z,9.50
2018-07-22T20:25:18.164Z,5.97
2018-07-22T20:30:21.284Z,9.63
2018-07-22T20:35:24.376Z,9.70
2018-07-22T20:40:27.520Z,10.40
2018-07-22T20:45:30.576Z,7.20
2018-07-22T20:50:33.782Z,7.80
2018-07-22T20:55:36.854Z,6.23
2018-07-22T21:00:39.928Z,7.43
2018-07-22T21:05:43.095Z,7.47
2018-07-22T21:10:46.265Z,7.83
2018-07-22T21:15:49.424Z,7.77
2018-07-22T21:20:52.634Z,6.80
2018-07-22T21:25:55.654Z,7.37
2018-07-22T21:30:58.890Z,6.97
2018-07-22T21:36:01.989Z,8.53
2018-07-22T21:41:05.158Z,7.77
2018-07-22T21:46:08.208Z,8.67
2018-07-22T21:51:15.137Z,8.90
2018-07-22T21:56:22.363Z,9.20
2018-07-22T22:01:25.488Z,8.43
2018-07-22T22:06:29.833Z,8.93
2018-07-22T22:11:32.924Z,9.80
2018-07-22T22:16:37.573Z,9.33
2018-07-22T22:21:40.654Z,9.00
2018-07-22T22:26:48.515Z,8.97
2018-07-22T22:31:54.849Z,9.33
2018-07-22T22:42:17.916Z,9.17
2018-07-22T22:47:20.985Z,9.03
2018-07-22T22:52:30.877Z,9.37
2018-07-22T22:57:35.823Z,11.07
2018-07-22T23:02:41.024Z,11.00
2018-07-22T23:07:44.997Z,11.33
2018-07-22T23:12:49.983Z,10.93
2018-07-22T23:17:55.105Z,10.37
2018-07-22T23:22:58.209Z,11.63
2018-07-22T23:28:02.335Z,12.57
2018-07-22T23:33:08.253Z,11.57
2018-07-22T23:38:14.519Z,12.17
2018-07-22T23:43:18.903Z,12.23
2018-07-22T23:48:28.933Z,11.97
2018-07-22T23:53:34.709Z,12.47
2018-07-22T23:58:41.572Z,11.83
